Etusivu
METAR-TAF:

METAR-TAF

Lentoasemat :

Sønderborg, Tanska

Leveyspiiri: 54-58N, Pituuspiiri: 009-47E, korkeus merenpinnasta: 7 m

Tämänhetkinen sää

Tämä raportti tehtiin 28 minuuttia sitten, kello 21.50 UTC
Tuuli 5 kn etelästä/lounaasta, vaihdellen etelän ja lännen/lounaan välillä
Lämpötila 15°C
Kosteus 100%
Ilmanpaine 1009 hPa
Näkyvyys 10 km tai enemmän

METAR: EKSB 132150Z AUTO 21005KT 170V240 9999 SCT008/// BKN019/// 15/15 Q1009

Aika: 00:18 (22:18 UTC)


TAF: puuttuu

Säähavainnot ja -ennusteet yli 4000 lentoasemalta (METAR- ja TAF-raportit).

Käytössä olevat sääasemat on merkitty karttaan keltaisilla ja punaisilla pisteillä.

Aseta hiiri pisteen päälle nähdäksesi sääaseman nimen.

Klikkaa sitten nähdäksesi säähavainnot ja -ennusteet.

Kartan vaihtaminen: klikkaa mustalla rastilla varustettuja vihreitä pisteitä, niin voit zoomata sisään; viivalla varustettua vihreää pistettä, niin voit zoomata ulos tai vihreitä nuolia, niin pääset viereisille kartoille.


METAR-TAF: